Time;durP1;ratioP1;P1;durP2;ratioP2;P2;SDS_P1;SDS_P2;PMS_P1;PMS_P2;Temp;Humidity;BMP_temperature;BMP_pressure;BME280_temperature;BME280_humidity;BME280_pressure;Samples;Min_cycle;Max_cycle;Signal;HPM_P1;HPM_P2
2022/09/12 00:02:20;;;;;;;0.50;0.50;;;13.90;81.30;;;;;;5002675;28;20190;-60
2022/09/12 00:04:46;;;;;;;1.20;1.00;;;13.90;81.60;;;;;;4990941;28;20188;-60
2022/09/12 00:07:12;;;;;;;0.87;0.73;;;13.90;81.80;;;;;;4989263;28;20203;-60
2022/09/12 00:09:38;;;;;;;1.97;0.83;;;14.00;81.80;;;;;;4998533;28;20228;-60
2022/09/12 00:12:04;;;;;;;1.07;0.77;;;14.00;81.60;;;;;;4997960;28;20197;-60
2022/09/12 00:14:30;;;;;;;3.77;1.20;;;13.90;81.60;;;;;;4995180;28;20197;-60
2022/09/12 00:16:59;;;;;;;1.57;1.10;;;13.90;82.00;;;;;;5011866;28;20220;-60
2022/09/12 00:19:29;;;;;;;1.00;0.90;;;13.90;82.40;;;;;;5012539;28;20239;-60
2022/09/12 00:21:55;;;;;;;0.50;0.50;;;13.90;82.30;;;;;;4989501;28;20215;-60
2022/09/12 00:24:21;;;;;;;5.77;1.20;;;13.90;82.40;;;;;;5019421;28;20199;-60
2022/09/12 00:26:47;;;;;;;2.07;0.60;;;13.90;82.10;;;;;;4996940;28;20201;-60
2022/09/12 00:29:18;;;;;;;2.33;0.80;;;13.80;82.10;;;;;;5024351;28;20255;-60
2022/09/12 00:31:45;;;;;;;2.93;1.00;;;13.80;82.00;;;;;;5027734;28;20271;-60
2022/09/12 00:34:11;;;;;;;1.53;0.97;;;13.90;81.70;;;;;;5011247;28;20217;-60
2022/09/12 00:36:38;;;;;;;2.23;0.83;;;13.90;81.60;;;;;;5011734;28;20251;-60
2022/09/12 00:39:05;;;;;;;1.73;0.90;;;13.90;81.50;;;;;;4992267;28;20194;-60
2022/09/12 00:41:39;;;;;;;1.40;1.00;;;13.80;81.40;;;;;;4976108;28;20272;-60
2022/09/12 00:44:11;;;;;;;0.70;0.60;;;13.80;81.70;;;;;;5021038;28;20248;-60
2022/09/12 00:46:45;;;;;;;0.90;0.80;;;13.80;81.80;;;;;;5002668;28;20197;-60
2022/09/12 00:49:31;;;;;;;1.73;0.87;;;13.80;81.70;;;;;;4993619;28;20184;-60
2022/09/12 00:52:04;;;;;;;2.77;0.90;;;13.80;81.70;;;;;;5011273;28;20200;-60
2022/09/12 00:54:35;;;;;;;1.47;0.73;;;13.80;81.60;;;;;;5008385;28;20239;-60
2022/09/12 00:57:05;;;;;;;1.40;0.80;;;13.60;81.90;;;;;;5012643;28;20267;-60
2022/09/12 00:59:40;;;;;;;0.73;0.70;;;13.60;81.70;;;;;;4988681;28;20217;-60
2022/09/12 01:02:06;;;;;;;1.33;0.70;;;13.70;82.00;;;;;;4981512;28;20223;-60
2022/09/12 01:04:35;;;;;;;2.07;1.00;;;13.70;81.80;;;;;;4991954;28;20221;-60
2022/09/12 01:07:04;;;;;;;4.73;0.90;;;13.60;81.80;;;;;;4989432;28;20191;-60
2022/09/12 01:09:30;;;;;;;2.10;1.10;;;13.60;81.80;;;;;;5008963;28;20224;-60
2022/09/12 01:11:56;;;;;;;1.33;0.90;;;13.60;81.70;;;;;;4995210;28;20188;-60
2022/09/12 01:14:22;;;;;;;1.33;0.70;;;13.60;82.10;;;;;;4971411;28;20193;-60
2022/09/12 01:16:50;;;;;;;1.80;0.77;;;13.60;82.00;;;;;;5009024;28;20212;-60
2022/09/12 01:19:40;;;;;;;2.20;1.17;;;13.60;82.30;;;;;;5021700;28;20244;-60
2022/09/12 01:22:28;;;;;;;1.50;1.00;;;13.60;82.10;;;;;;5017839;28;20177;-60
2022/09/12 01:25:32;;;;;;;1.23;0.97;;;13.50;82.40;;;;;;5014756;28;20193;-60
2022/09/12 01:28:39;;;;;;;3.50;0.70;;;13.60;82.40;;;;;;4993047;28;20283;-60
2022/09/12 01:31:33;;;;;;;2.23;0.93;;;13.50;82.40;;;;;;4983755;28;20271;-60
2022/09/12 01:34:12;;;;;;;0.87;0.67;;;13.50;82.60;;;;;;5024075;28;20200;-60
2022/09/12 01:36:51;;;;;;;1.50;0.97;;;13.50;82.50;;;;;;4980301;28;20212;-60
2022/09/12 01:39:38;;;;;;;2.10;0.70;;;13.60;82.40;;;;;;5026949;28;20188;-60
2022/09/12 01:42:16;;;;;;;2.03;0.90;;;13.50;82.60;;;;;;5013342;28;20184;-60
2022/09/12 01:45:06;;;;;;;2.70;0.80;;;13.50;82.80;;;;;;4991459;28;20238;-60
2022/09/12 01:47:44;;;;;;;2.07;0.90;;;13.60;82.30;;;;;;5026916;28;20275;-60
2022/09/12 01:50:16;;;;;;;3.00;0.93;;;13.60;82.20;;;;;;5007849;28;20193;-60
2022/09/12 01:52:51;;;;;;;3.50;1.20;;;13.60;82.20;;;;;;5002573;28;20196;-60
2022/09/12 01:55:28;;;;;;;1.40;0.80;;;13.50;82.20;;;;;;5019145;28;20193;-59
2022/09/12 01:58:14;;;;;;;2.80;0.80;;;13.40;82.30;;;;;;4989906;28;20184;-59
2022/09/12 02:01:02;;;;;;;2.23;0.90;;;13.40;82.50;;;;;;4992153;28;20264;-60
2022/09/12 02:03:39;;;;;;;3.53;1.40;;;13.30;82.60;;;;;;5020829;28;20181;-60
2022/09/12 02:06:18;;;;;;;1.50;1.00;;;13.30;82.60;;;;;;4992055;28;20188;-60
2022/09/12 02:08:51;;;;;;;2.07;0.87;;;13.40;82.50;;;;;;4976672;28;20279;-60
2022/09/12 02:11:18;;;;;;;1.20;0.90;;;13.30;82.40;;;;;;5013883;28;20213;-60
2022/09/12 02:14:09;;;;;;;1.37;1.00;;;13.30;82.40;;;;;;4994317;28;20211;-60
2022/09/12 02:16:58;;;;;;;1.83;1.10;;;13.30;82.40;;;;;;4991477;28;20193;-61
2022/09/12 02:19:28;;;;;;;2.07;0.97;;;13.40;82.70;;;;;;4982981;28;20188;-60
2022/09/12 02:22:00;;;;;;;1.90;0.93;;;13.30;82.40;;;;;;4978594;28;20180;-60
2022/09/12 02:24:42;;;;;;;2.33;1.00;;;13.30;82.50;;;;;;4990744;28;20193;-60
2022/09/12 02:27:20;;;;;;;2.53;1.17;;;13.30;82.50;;;;;;5011549;28;20181;-59
2022/09/12 02:29:46;;;;;;;1.23;1.07;;;13.20;82.60;;;;;;5025603;28;20279;-60
2022/09/12 02:32:19;;;;;;;4.57;0.90;;;13.10;82.70;;;;;;5007300;28;20244;-61
2022/09/12 02:35:14;;;;;;;4.03;1.30;;;13.10;82.90;;;;;;5020968;28;20209;-60
2022/09/12 02:37:58;;;;;;;3.00;1.07;;;13.20;82.80;;;;;;4988775;28;20225;-60
2022/09/12 02:40:24;;;;;;;2.17;0.90;;;13.20;82.70;;;;;;5012632;28;20177;-60
2022/09/12 02:42:50;;;;;;;3.27;1.00;;;13.20;82.70;;;;;;5001706;28;20192;-60
2022/09/12 02:45:17;;;;;;;3.20;0.97;;;13.20;82.60;;;;;;5025228;28;20188;-60
2022/09/12 02:47:52;;;;;;;1.13;1.00;;;13.10;82.50;;;;;;4979780;28;20192;-60
2022/09/12 02:50:18;;;;;;;3.93;0.90;;;13.00;82.80;;;;;;4996654;28;20254;-60
2022/09/12 02:52:45;;;;;;;1.17;1.10;;;13.00;83.10;;;;;;5011312;28;20184;-60
2022/09/12 02:55:12;;;;;;;0.87;0.87;;;13.10;82.80;;;;;;5021999;28;20180;-60
2022/09/12 02:57:38;;;;;;;2.00;1.50;;;13.10;82.90;;;;;;4985245;28;20255;-61
2022/09/12 03:00:05;;;;;;;1.20;0.90;;;13.10;83.00;;;;;;5033883;28;20185;-60
2022/09/12 03:02:55;;;;;;;1.33;1.10;;;13.00;83.10;;;;;;5028305;28;20176;-60
2022/09/12 03:05:33;;;;;;;1.30;1.20;;;13.00;83.20;;;;;;5015865;28;20213;-60
2022/09/12 03:08:13;;;;;;;1.20;1.10;;;13.00;83.70;;;;;;5014558;28;20223;-60
2022/09/12 03:10:55;;;;;;;1.37;1.20;;;13.00;83.70;;;;;;5010349;28;20304;-60
2022/09/12 03:13:47;;;;;;;1.67;1.10;;;13.00;83.60;;;;;;5018915;28;20183;-60
2022/09/12 03:16:31;;;;;;;1.37;1.00;;;13.00;83.70;;;;;;4998633;28;20244;-60
2022/09/12 03:19:24;;;;;;;2.40;1.07;;;13.20;84.00;;;;;;5019802;28;20185;-61
2022/09/12 03:22:04;;;;;;;1.10;0.93;;;13.30;83.80;;;;;;5018545;28;20177;-60
2022/09/12 03:24:58;;;;;;;1.87;1.40;;;13.40;83.70;;;;;;5024597;28;20184;-60
2022/09/12 03:28:00;;;;;;;1.83;0.90;;;13.40;83.50;;;;;;4996489;28;20220;-60
2022/09/12 03:30:26;;;;;;;1.53;1.03;;;13.40;83.70;;;;;;4987565;28;20193;-61
2022/09/12 03:32:53;;;;;;;2.90;1.20;;;13.50;83.80;;;;;;5011011;28;20249;-60
2022/09/12 03:35:21;;;;;;;1.77;1.03;;;13.50;83.50;;;;;;4981661;28;20263;-60
2022/09/12 03:37:48;;;;;;;5.40;1.30;;;13.50;83.50;;;;;;4985452;28;20209;-60
2022/09/12 03:40:14;;;;;;;2.60;1.50;;;13.50;83.30;;;;;;5028423;28;20186;-60
2022/09/12 03:42:40;;;;;;;2.73;1.27;;;13.50;83.30;;;;;;5026415;28;20180;-60
2022/09/12 03:45:07;;;;;;;1.50;1.17;;;13.50;83.30;;;;;;4992873;28;20193;-60
2022/09/12 03:47:33;;;;;;;1.90;1.20;;;13.50;83.10;;;;;;4987701;28;20213;-60
2022/09/12 03:49:59;;;;;;;1.30;1.10;;;13.50;83.10;;;;;;4990534;28;20185;-59
2022/09/12 03:52:24;;;;;;;3.07;1.00;;;13.50;83.10;;;;;;5033195;28;20216;-60
2022/09/12 03:54:50;;;;;;;1.57;1.03;;;13.60;83.20;;;;;;4976359;28;20232;-60
2022/09/12 03:57:16;;;;;;;2.33;1.23;;;13.60;83.40;;;;;;4997993;28;20209;-60
2022/09/12 03:59:41;;;;;;;1.20;1.10;;;13.60;83.60;;;;;;4998263;28;20185;-60
2022/09/12 04:02:08;;;;;;;3.60;1.03;;;13.60;83.60;;;;;;5012023;28;20252;-59
2022/09/12 04:04:34;;;;;;;1.50;1.37;;;13.60;83.70;;;;;;5004695;28;20185;-60
2022/09/12 04:07:00;;;;;;;2.63;0.83;;;13.50;83.70;;;;;;5012280;28;20235;-59
2022/09/12 04:09:25;;;;;;;3.67;1.00;;;13.60;83.60;;;;;;5004509;28;20188;-59
2022/09/12 04:11:51;;;;;;;1.60;1.10;;;13.60;83.50;;;;;;5002114;28;20197;-60
2022/09/12 04:14:16;;;;;;;1.20;1.10;;;13.60;83.70;;;;;;5005062;28;20185;-60
2022/09/12 04:16:42;;;;;;;2.90;1.17;;;13.60;83.90;;;;;;5020000;28;20224;-60
2022/09/12 04:19:10;;;;;;;1.17;1.00;;;13.70;83.70;;;;;;5006507;28;20281;-60
2022/09/12 04:21:36;;;;;;;4.43;1.13;;;13.70;83.60;;;;;;4978474;28;20181;-60
2022/09/12 04:24:02;;;;;;;0.83;0.83;;;13.70;83.50;;;;;;4990475;28;20195;-59
2022/09/12 04:26:28;;;;;;;1.23;0.97;;;13.70;83.70;;;;;;4999952;28;20192;-59
2022/09/12 04:28:55;;;;;;;2.13;1.00;;;13.70;83.70;;;;;;4973014;28;20218;-60
2022/09/12 04:31:22;;;;;;;1.93;1.03;;;13.80;83.60;;;;;;4999903;28;20200;-60
2022/09/12 04:33:53;;;;;;;1.70;1.10;;;13.80;83.50;;;;;;5004312;28;20201;-61
2022/09/12 04:36:19;;;;;;;1.10;0.80;;;13.80;83.50;;;;;;5015441;28;20212;-61
2022/09/12 04:38:46;;;;;;;2.07;1.00;;;13.80;83.40;;;;;;5001154;28;20189;-61
2022/09/12 04:41:20;;;;;;;1.23;0.80;;;13.80;83.30;;;;;;5024726;28;20189;-61
2022/09/12 04:43:47;;;;;;;3.17;1.07;;;13.80;83.00;;;;;;5010326;28;20181;-61
2022/09/12 04:46:16;;;;;;;1.10;0.90;;;13.80;83.00;;;;;;4996691;28;20199;-61
2022/09/12 04:48:42;;;;;;;3.30;1.20;;;13.80;83.10;;;;;;5011839;28;20197;-61
2022/09/12 04:51:14;;;;;;;0.80;0.80;;;13.70;83.00;;;;;;4991896;28;20200;-61
2022/09/12 04:53:41;;;;;;;3.70;0.90;;;13.70;83.00;;;;;;5014748;28;20195;-61
2022/09/12 04:56:09;;;;;;;2.60;1.10;;;13.70;83.00;;;;;;4990807;28;20225;-61
2022/09/12 04:58:35;;;;;;;1.30;1.20;;;13.70;83.10;;;;;;5006411;28;20200;-61
2022/09/12 05:01:09;;;;;;;2.57;1.17;;;13.70;83.40;;;;;;4974423;28;20185;-61
2022/09/12 05:03:37;;;;;;;1.83;1.03;;;13.80;83.30;;;;;;5014021;28;20215;-61
2022/09/12 05:06:06;;;;;;;2.73;1.00;;;13.70;83.40;;;;;;5020439;28;20192;-61
2022/09/12 05:08:32;;;;;;;2.27;1.23;;;13.80;83.40;;;;;;5024381;28;20193;-60
2022/09/12 05:11:05;;;;;;;1.20;1.10;;;13.70;83.30;;;;;;5004092;28;20273;-60
2022/09/12 05:13:32;;;;;;;1.20;1.10;;;13.70;83.20;;;;;;4987398;28;20189;-62
2022/09/12 05:15:59;;;;;;;2.40;1.20;;;13.70;83.30;;;;;;5003067;28;20243;-60
2022/09/12 05:18:25;;;;;;;4.00;1.50;;;13.60;83.30;;;;;;5003646;28;20188;-60
2022/09/12 05:20:54;;;;;;;1.30;1.20;;;13.50;83.40;;;;;;5012181;28;20235;-60
2022/09/12 05:23:20;;;;;;;1.30;0.87;;;13.50;83.70;;;;;;5001989;28;20200;-59
2022/09/12 05:25:54;;;;;;;3.83;1.10;;;13.50;83.50;;;;;;5021306;28;20187;-59
2022/09/12 05:28:21;;;;;;;1.90;1.37;;;13.40;83.70;;;;;;4974562;28;20209;-60
2022/09/12 05:30:46;;;;;;;1.70;1.00;;;13.50;83.70;;;;;;4956847;28;20193;-60
2022/09/12 05:33:13;;;;;;;1.77;1.20;;;13.50;83.60;;;;;;4998995;28;20255;-60
2022/09/12 05:35:39;;;;;;;1.37;1.27;;;13.50;83.80;;;;;;5039522;28;20196;-60
2022/09/12 05:38:06;;;;;;;1.57;1.23;;;13.50;83.70;;;;;;5025404;28;20193;-60
2022/09/12 05:40:33;;;;;;;1.93;1.20;;;13.50;83.60;;;;;;5005882;28;20209;-60
2022/09/12 05:42:59;;;;;;;3.77;1.70;;;13.40;83.70;;;;;;5014958;28;20189;-60
2022/09/12 05:45:25;;;;;;;3.50;2.10;;;13.30;84.10;;;;;;5013985;28;20200;-60
2022/09/12 05:47:52;;;;;;;4.47;1.90;;;13.30;84.30;;;;;;4989255;28;20279;-60
2022/09/12 05:50:18;;;;;;;1.97;1.30;;;13.40;84.10;;;;;;4998196;28;20196;-60
2022/09/12 05:52:44;;;;;;;9.53;3.57;;;13.30;84.10;;;;;;5017364;28;20197;-60
2022/09/12 05:55:10;;;;;;;11.37;3.70;;;13.40;83.90;;;;;;4991457;28;20192;-60
2022/09/12 05:57:36;;;;;;;7.73;2.77;;;13.40;83.80;;;;;;4979947;28;20213;-60
2022/09/12 06:00:04;;;;;;;17.50;6.50;;;13.40;83.70;;;;;;4984848;28;20188;-60
2022/09/12 06:02:29;;;;;;;18.20;5.40;;;13.40;83.70;;;;;;5017930;28;20195;-60
2022/09/12 06:04:55;;;;;;;18.43;5.13;;;13.40;83.70;;;;;;5024042;28;20192;-60
2022/09/12 06:07:21;;;;;;;20.63;5.33;;;13.50;83.70;;;;;;4994901;28;20271;-60
2022/09/12 06:09:47;;;;;;;7.80;3.27;;;13.50;83.70;;;;;;4984609;28;20204;-60
2022/09/12 06:12:12;;;;;;;8.43;3.27;;;13.50;83.90;;;;;;5012540;28;20216;-60
2022/09/12 06:14:38;;;;;;;6.67;2.17;;;13.40;84.00;;;;;;4997292;28;20216;-60
2022/09/12 06:17:04;;;;;;;7.77;2.70;;;13.40;84.00;;;;;;4992177;28;20222;-60
2022/09/12 06:19:30;;;;;;;8.77;2.93;;;13.40;83.90;;;;;;5006231;28;20200;-60
2022/09/12 06:21:55;;;;;;;4.23;1.93;;;13.50;83.80;;;;;;5005787;28;20198;-60
2022/09/12 06:24:22;;;;;;;3.47;2.13;;;13.50;83.80;;;;;;4979178;28;20240;-60
2022/09/12 06:26:48;;;;;;;3.83;1.80;;;13.50;84.00;;;;;;4979999;28;20204;-60
2022/09/12 06:29:14;;;;;;;3.03;1.60;;;13.60;83.90;;;;;;4995802;28;20205;-60
2022/09/12 06:31:41;;;;;;;3.63;1.80;;;13.60;83.70;;;;;;5019290;28;20275;-60
2022/09/12 06:34:10;;;;;;;3.93;1.80;;;13.60;83.50;;;;;;4996481;28;20204;-60
2022/09/12 06:36:38;;;;;;;1.90;1.70;;;13.70;83.50;;;;;;5023624;28;20303;-60
2022/09/12 06:39:12;;;;;;;2.47;1.43;;;13.80;83.70;;;;;;5010221;28;20189;-60
2022/09/12 06:41:38;;;;;;;3.67;1.60;;;13.80;83.60;;;;;;4985917;28;20279;-60
2022/09/12 06:44:05;;;;;;;2.70;1.97;;;13.80;83.70;;;;;;5003592;28;20201;-60
2022/09/12 06:46:31;;;;;;;1.33;1.20;;;13.80;83.60;;;;;;4991922;28;20192;-60
2022/09/12 06:48:59;;;;;;;2.90;1.40;;;13.80;83.60;;;;;;5019744;28;20199;-60
2022/09/12 06:51:26;;;;;;;1.60;1.30;;;13.90;83.40;;;;;;5007783;28;20185;-60
2022/09/12 06:53:54;;;;;;;1.80;1.23;;;13.90;83.30;;;;;;4973438;28;20188;-60
2022/09/12 06:56:22;;;;;;;1.33;1.23;;;14.00;83.30;;;;;;4976807;28;20205;-60
2022/09/12 06:58:49;;;;;;;1.77;1.43;;;14.10;83.50;;;;;;5016671;28;20257;-60
2022/09/12 07:01:21;;;;;;;2.90;1.30;;;14.10;83.30;;;;;;5023843;28;20184;-60
2022/09/12 07:03:49;;;;;;;2.43;1.63;;;14.20;83.40;;;;;;4981546;28;20205;-60
2022/09/12 07:06:17;;;;;;;3.73;1.47;;;14.30;83.30;;;;;;5009973;28;20220;-60
2022/09/12 07:08:43;;;;;;;2.53;1.43;;;14.30;82.90;;;;;;5003146;28;20218;-61
2022/09/12 07:11:14;;;;;;;1.50;1.40;;;14.30;82.70;;;;;;5003932;28;20228;-61
2022/09/12 07:13:41;;;;;;;1.70;1.40;;;14.50;82.70;;;;;;5025823;28;20189;-61
2022/09/12 07:16:08;;;;;;;1.40;0.93;;;14.50;82.60;;;;;;4978383;28;20268;-61
2022/09/12 07:18:36;;;;;;;1.73;1.30;;;14.60;82.50;;;;;;4995447;28;20252;-61
2022/09/12 07:21:04;;;;;;;1.00;0.90;;;14.70;82.50;;;;;;4996650;28;20193;-61
2022/09/12 07:23:30;;;;;;;1.60;1.40;;;14.80;82.60;;;;;;4987247;28;20186;-61
2022/09/12 07:25:57;;;;;;;2.43;1.30;;;14.80;82.40;;;;;;5016929;28;20189;-61
2022/09/12 07:28:24;;;;;;;1.80;1.10;;;14.90;81.90;;;;;;5004283;28;20200;-61
2022/09/12 07:30:52;;;;;;;3.47;1.30;;;14.90;82.10;;;;;;5010841;28;20213;-61
2022/09/12 07:33:28;;;;;;;2.23;1.30;;;15.00;82.10;;;;;;5025256;28;20232;-58
2022/09/12 07:35:53;;;;;;;1.23;1.13;;;15.00;81.90;;;;;;5002775;28;20186;-59
2022/09/12 07:38:22;;;;;;;3.37;1.20;;;15.10;82.00;;;;;;5004801;28;20196;-59
2022/09/12 07:40:48;;;;;;;1.83;1.20;;;15.20;82.30;;;;;;4995139;28;20189;-59
2022/09/12 07:43:14;;;;;;;2.30;1.20;;;15.10;82.40;;;;;;5013560;28;20189;-59
2022/09/12 07:45:41;;;;;;;3.33;1.47;;;15.20;81.80;;;;;;5011765;28;20244;-59
2022/09/12 07:48:07;;;;;;;3.80;1.57;;;15.20;81.70;;;;;;5021191;28;20189;-59
2022/09/12 07:50:33;;;;;;;1.83;1.50;;;15.20;81.40;;;;;;5004219;28;20198;-59
2022/09/12 07:52:59;;;;;;;1.30;1.20;;;15.20;81.50;;;;;;5009645;28;20197;-59
2022/09/12 07:55:25;;;;;;;3.87;1.57;;;15.20;81.30;;;;;;5011375;28;20197;-59
2022/09/12 07:57:51;;;;;;;2.70;1.40;;;15.30;79.80;;;;;;4996413;28;20218;-60
2022/09/12 08:00:17;;;;;;;1.60;1.37;;;15.30;80.00;;;;;;5008371;28;20197;-59
2022/09/12 08:02:43;;;;;;;2.23;1.40;;;15.40;79.60;;;;;;5012853;28;20293;-59
2022/09/12 08:05:09;;;;;;;1.73;1.63;;;15.40;80.10;;;;;;5026877;28;20235;-59
2022/09/12 08:07:35;;;;;;;2.03;1.60;;;15.40;80.10;;;;;;5010778;28;20241;-59
2022/09/12 08:10:01;;;;;;;3.87;1.57;;;15.50;79.60;;;;;;4994457;28;20221;-59
2022/09/12 08:12:27;;;;;;;2.17;1.57;;;15.50;79.40;;;;;;4997311;28;20227;-59
2022/09/12 08:14:53;;;;;;;1.80;1.40;;;15.60;78.70;;;;;;4986786;28;20193;-60
2022/09/12 08:17:19;;;;;;;1.13;1.03;;;15.70;78.50;;;;;;5011364;28;20209;-60
2022/09/12 08:19:45;;;;;;;3.90;1.67;;;15.70;78.90;;;;;;4982830;28;20181;-60
2022/09/12 08:22:11;;;;;;;1.57;1.37;;;15.80;79.20;;;;;;5033531;28;20248;-60
2022/09/12 08:24:38;;;;;;;1.97;1.70;;;16.00;76.40;;;;;;5001241;28;20208;-60
2022/09/12 08:27:05;;;;;;;3.63;1.87;;;16.20;76.00;;;;;;5022030;28;20200;-60
2022/09/12 08:29:30;;;;;;;2.83;2.13;;;16.30;76.80;;;;;;5014732;28;20291;-60
2022/09/12 08:31:56;;;;;;;9.03;2.40;;;16.60;76.50;;;;;;4991350;28;20387;-60
2022/09/12 08:34:23;;;;;;;4.80;2.07;;;16.80;74.80;;;;;;4992666;28;20261;-60
2022/09/12 08:36:49;;;;;;;3.60;2.30;;;16.90;74.80;;;;;;4994704;28;20432;-60
2022/09/12 08:39:15;;;;;;;2.90;1.90;;;16.90;74.60;;;;;;5008670;28;20193;-60
2022/09/12 08:41:54;;;;;;;3.80;2.00;;;17.00;74.70;;;;;;4992259;28;20219;-60
2022/09/12 08:44:35;;;;;;;4.60;1.40;;;17.10;73.80;;;;;;5025333;28;20196;-60
2022/09/12 08:47:39;;;;;;;4.77;2.20;;;17.30;73.90;;;;;;5007437;28;20216;-60
2022/09/12 08:50:10;;;;;;;2.17;1.60;;;17.30;73.60;;;;;;4977332;28;20197;-60
2022/09/12 08:53:03;;;;;;;2.20;1.80;;;17.40;74.10;;;;;;5018518;28;20190;-60
2022/09/12 08:55:45;;;;;;;2.77;1.90;;;17.40;74.30;;;;;;4980654;28;20189;-60
2022/09/12 08:58:15;;;;;;;3.10;1.80;;;17.40;74.90;;;;;;5022949;28;20195;-60
2022/09/12 09:01:09;;;;;;;2.70;2.10;;;17.50;75.50;;;;;;5016849;28;20186;-60
2022/09/12 09:03:51;;;;;;;4.70;2.10;;;17.70;73.80;;;;;;5014306;28;20192;-60
2022/09/12 09:06:31;;;;;;;3.80;1.43;;;17.90;69.80;;;;;;4988076;28;20242;-60
2022/09/12 09:09:42;;;;;;;3.30;1.90;;;18.00;69.70;;;;;;5016246;28;20177;-60
2022/09/12 09:12:29;;;;;;;2.30;1.70;;;18.10;71.20;;;;;;4984730;28;20259;-60
2022/09/12 09:15:08;;;;;;;2.00;1.47;;;18.20;71.30;;;;;;4989747;28;20192;-60
2022/09/12 09:17:44;;;;;;;3.27;1.80;;;18.20;71.40;;;;;;5017546;28;20211;-60
2022/09/12 09:20:22;;;;;;;3.10;2.07;;;18.30;71.90;;;;;;5020739;28;20188;-60
2022/09/12 09:23:19;;;;;;;5.13;1.80;;;18.50;71.60;;;;;;4981791;28;20181;-60
2022/09/12 09:25:44;;;;;;;3.20;1.83;;;18.60;71.50;;;;;;4993620;28;20193;-60
2022/09/12 09:28:19;;;;;;;2.20;1.63;;;18.70;65.40;;;;;;5009436;28;20199;-60
2022/09/12 09:30:45;;;;;;;3.27;1.60;;;18.80;67.60;;;;;;4988001;28;20221;-60
2022/09/12 09:33:34;;;;;;;2.07;1.50;;;18.80;69.90;;;;;;5012330;28;20233;-60
2022/09/12 09:36:17;;;;;;;3.80;1.70;;;18.90;69.50;;;;;;4986269;28;20188;-60
2022/09/12 09:38:48;;;;;;;1.57;1.43;;;19.10;67.90;;;;;;4986417;28;20181;-60
2022/09/12 09:41:53;;;;;;;2.97;1.60;;;19.10;67.60;;;;;;4985977;28;20188;-60
2022/09/12 09:44:19;;;;;;;3.07;1.53;;;19.20;66.20;;;;;;4977679;28;20221;-60
2022/09/12 09:46:46;;;;;;;1.33;1.23;;;19.20;66.40;;;;;;4989411;28;20256;-60
2022/09/12 09:49:14;;;;;;;4.30;1.60;;;19.20;66.40;;;;;;4989640;28;20228;-60
2022/09/12 09:51:41;;;;;;;3.20;1.67;;;19.30;67.70;;;;;;4988106;28;20184;-60
2022/09/12 09:54:21;;;;;;;3.50;1.50;;;19.30;67.70;;;;;;4986234;28;20242;-60
2022/09/12 09:56:47;;;;;;;2.13;1.23;;;19.30;62.90;;;;;;4975199;28;20205;-60
2022/09/12 09:59:18;;;;;;;2.83;2.07;;;19.30;63.50;;;;;;5005884;28;20209;-60
2022/09/12 10:01:53;;;;;;;4.50;1.77;;;19.30;63.20;;;;;;5011176;28;20197;-60
2022/09/12 10:04:24;;;;;;;1.70;1.50;;;19.30;64.00;;;;;;5011274;28;20273;-60
2022/09/12 10:06:56;;;;;;;3.07;1.40;;;19.30;64.60;;;;;;4986251;28;20193;-60
2022/09/12 10:09:34;;;;;;;3.73;1.73;;;19.20;65.20;;;;;;4977386;28;20190;-60
2022/09/12 10:12:20;;;;;;;2.97;1.70;;;19.20;65.30;;;;;;4985010;28;20184;-60
2022/09/12 10:14:57;;;;;;;3.77;1.50;;;19.10;65.10;;;;;;4979789;28;20188;-60
2022/09/12 10:17:54;;;;;;;2.93;1.60;;;19.00;66.70;;;;;;4982498;28;20217;-60
2022/09/12 10:20:43;;;;;;;1.70;1.40;;;19.00;68.60;;;;;;4990267;28;20199;-60
2022/09/12 10:23:24;;;;;;;1.40;1.27;;;18.90;69.30;;;;;;5014319;28;20177;-60
2022/09/12 10:25:56;;;;;;;2.03;1.10;;;18.80;69.80;;;;;;4989796;28;20191;-60
2022/09/12 10:28:33;;;;;;;2.13;1.50;;;18.80;68.80;;;;;;4984683;28;20204;-60
2022/09/12 10:31:01;;;;;;;1.70;1.60;;;18.80;69.40;;;;;;5020815;28;20184;-60
2022/09/12 10:33:27;;;;;;;1.50;1.37;;;18.80;66.90;;;;;;4984517;28;20233;-60
2022/09/12 10:35:54;;;;;;;1.30;1.20;;;18.90;68.50;;;;;;5000869;28;20192;-61
2022/09/12 10:38:33;;;;;;;1.77;1.33;;;18.90;65.70;;;;;;4974453;28;20228;-60
2022/09/12 10:41:10;;;;;;;2.60;1.13;;;19.00;65.80;;;;;;4981190;28;20181;-61
2022/09/12 10:43:38;;;;;;;1.50;1.40;;;19.30;66.80;;;;;;5017866;28;20188;-61
2022/09/12 10:46:18;;;;;;;2.63;1.40;;;19.30;64.00;;;;;;4984009;28;20239;-60
2022/09/12 10:49:11;;;;;;;1.83;1.50;;;19.40;64.50;;;;;;5011217;28;20195;-61
2022/09/12 10:51:37;;;;;;;2.07;1.50;;;19.60;62.70;;;;;;4979513;28;20192;-60
2022/09/12 10:54:07;;;;;;;4.27;1.10;;;19.90;61.40;;;;;;4990279;28;20181;-60
2022/09/12 10:56:37;;;;;;;2.60;1.53;;;20.20;57.90;;;;;;5013083;28;20260;-60
2022/09/12 10:59:46;;;;;;;1.70;1.60;;;20.30;56.10;;;;;;4977729;28;20233;-60
2022/09/12 11:02:28;;;;;;;2.37;1.50;;;20.30;59.50;;;;;;5001193;28;20207;-60
2022/09/12 11:04:53;;;;;;;1.40;1.20;;;20.40;55.90;;;;;;4985828;28;20235;-60
2022/09/12 11:07:27;;;;;;;1.43;1.00;;;20.60;57.20;;;;;;5025024;28;20196;-60
2022/09/12 11:09:53;;;;;;;1.90;1.50;;;20.70;56.80;;;;;;5014278;28;20189;-60
2022/09/12 11:12:33;;;;;;;2.57;1.50;;;20.70;58.40;;;;;;4990158;28;20252;-60
2022/09/12 11:15:21;;;;;;;2.07;1.40;;;20.80;55.30;;;;;;5020451;28;20216;-59
2022/09/12 11:17:52;;;;;;;3.80;1.53;;;20.80;56.60;;;;;;4988332;28;20200;-60
2022/09/12 11:20:21;;;;;;;1.27;1.10;;;21.10;56.40;;;;;;4987835;28;20189;-60
2022/09/12 11:23:17;;;;;;;2.23;1.43;;;21.20;56.20;;;;;;5018108;28;20272;-59
2022/09/12 11:25:56;;;;;;;2.17;1.27;;;21.40;52.10;;;;;;4978640;28;20182;-60
2022/09/12 11:28:32;;;;;;;1.30;1.20;;;21.40;52.00;;;;;;5010284;28;20189;-60
2022/09/12 11:31:21;;;;;;;1.00;0.93;;;21.60;52.00;;;;;;4996480;28;20251;-60
2022/09/12 11:33:51;;;;;;;2.63;1.60;;;21.80;49.60;;;;;;5025232;28;20196;-60
2022/09/12 11:36:23;;;;;;;1.30;1.20;;;22.00;49.10;;;;;;4996689;28;20311;-60
2022/09/12 11:39:07;;;;;;;1.37;1.10;;;22.20;47.00;;;;;;5020592;28;20189;-60
2022/09/12 11:41:41;;;;;;;2.17;1.17;;;22.20;45.90;;;;;;5021050;28;20200;-60
2022/09/12 11:44:23;;;;;;;1.30;1.00;;;22.20;44.90;;;;;;4988861;28;20180;-60
2022/09/12 11:46:49;;;;;;;1.60;1.00;;;22.20;45.40;;;;;;4989533;28;20185;-60
2022/09/12 11:49:39;;;;;;;1.57;1.10;;;22.30;44.40;;;;;;4994388;28;20213;-60
2022/09/12 11:52:26;;;;;;;0.87;0.87;;;22.30;47.10;;;;;;5027352;28;20232;-60
2022/09/12 11:55:13;;;;;;;1.73;1.10;;;22.30;45.70;;;;;;4988514;28;20185;-60
2022/09/12 11:57:53;;;;;;;1.10;1.00;;;22.20;47.00;;;;;;5011457;28;20219;-60
2022/09/12 12:00:20;;;;;;;1.20;0.97;;;22.20;44.70;;;;;;5000427;28;20207;-60
2022/09/12 12:02:57;;;;;;;2.63;1.10;;;22.20;47.40;;;;;;5023328;28;20203;-59
2022/09/12 12:05:42;;;;;;;1.60;0.90;;;22.20;50.00;;;;;;4987532;28;20350;-60
2022/09/12 12:08:10;;;;;;;4.20;1.20;;;22.20;52.70;;;;;;5014917;28;20228;-60
2022/09/12 12:11:02;;;;;;;2.30;1.30;;;22.20;54.40;;;;;;4999800;28;20205;-60
2022/09/12 12:13:38;;;;;;;1.70;1.47;;;22.40;55.70;;;;;;4975982;28;20242;-60
2022/09/12 12:16:03;;;;;;;1.70;0.97;;;22.80;54.10;;;;;;5020200;28;20267;-60
2022/09/12 12:18:31;;;;;;;1.03;0.97;;;23.00;53.10;;;;;;4996564;28;20252;-60
2022/09/12 12:21:17;;;;;;;1.57;1.17;;;23.30;53.40;;;;;;5022782;28;20189;-60
2022/09/12 12:24:07;;;;;;;1.73;0.90;;;23.50;52.40;;;;;;5014748;28;20199;-61
2022/09/12 12:26:56;;;;;;;1.10;1.00;;;23.60;50.90;;;;;;5021595;28;20264;-60
2022/09/12 12:29:22;;;;;;;1.93;1.40;;;23.70;51.50;;;;;;4988012;28;20208;-61
2022/09/12 12:32:03;;;;;;;1.50;1.00;;;23.90;48.40;;;;;;5020169;28;20238;-61
2022/09/12 12:34:38;;;;;;;1.20;1.10;;;23.90;47.90;;;;;;5009642;28;20264;-61
2022/09/12 12:37:19;;;;;;;1.13;1.10;;;23.90;46.70;;;;;;5018045;28;20246;-60
2022/09/12 12:39:51;;;;;;;2.20;1.07;;;24.30;45.50;;;;;;4986311;28;20191;-60
2022/09/12 12:42:35;;;;;;;2.20;1.00;;;24.80;43.80;;;;;;5017198;28;20200;-60
2022/09/12 12:45:08;;;;;;;1.10;1.00;;;25.20;41.00;;;;;;5024620;28;20180;-61
2022/09/12 12:47:36;;;;;;;0.97;0.77;;;25.50;42.10;;;;;;5022664;28;20195;-61
2022/09/12 12:50:20;;;;;;;1.30;0.97;;;25.90;42.10;;;;;;4986958;28;20189;-61
2022/09/12 12:52:56;;;;;;;1.23;0.80;;;26.40;38.20;;;;;;5017786;28;20239;-60
2022/09/12 12:55:50;;;;;;;0.93;0.90;;;26.60;37.70;;;;;;5014250;28;20199;-60
2022/09/12 12:58:24;;;;;;;1.30;0.80;;;26.90;39.30;;;;;;5018936;28;20263;-60
2022/09/12 13:01:02;;;;;;;1.43;0.80;;;27.40;39.20;;;;;;5019150;28;20190;-60
2022/09/12 13:03:31;;;;;;;1.43;0.97;;;27.10;37.00;;;;;;5020769;28;20221;-60
2022/09/12 13:06:18;;;;;;;2.13;1.23;;;27.60;39.40;;;;;;4988396;28;20212;-60
2022/09/12 13:08:58;;;;;;;1.13;0.90;;;28.20;38.10;;;;;;4980873;28;20189;-61
2022/09/12 13:11:38;;;;;;;0.90;0.90;;;28.70;37.40;;;;;;4985778;28;20188;-61
2022/09/12 13:14:46;;;;;;;1.23;1.13;;;29.30;35.60;;;;;;4984642;28;20192;-60
2022/09/12 13:17:18;;;;;;;1.47;1.07;;;29.50;34.70;;;;;;4985638;28;20207;-60